Parks, Louisiana
Current Conditions -  °F | °C
As of 1:53 PM on Wednesday 26 Nov 2014 (Local Time) from KLFT Reporting Station
Clear Clear  
Wind Chill: 69°   Ceiling: Unl
Heat Index: 69°   Visibility: 10mi
Dew Point: 38°   Wind: 15mph
Humidity: 32%   Direction: 240°WSW
Pressure: 30.17"   Gusts: 25mph
Location:  30.2235°N, 91.7772°W
Report Text: KLFT 261953Z 24013G22KT 10SM CLR 21/03 A3017 RMK AO2 PK WND 23027/1919 SLP217 T02060033
Loading
Personal Weather Stations






























Interactive Weather Map New forecast layout! Learn more

10-Day Weather Forecast

Advertisements
Track Severe Weather on mobile